Time;durP1;ratioP1;P1;durP2;ratioP2;P2;SDS_P1;SDS_P2;PMS_P1;PMS_P2;Temp;Humidity;BMP_temperature;BMP_pressure;BME280_temperature;BME280_humidity;BME280_pressure;Samples;Min_cycle;Max_cycle;Signal;HPM_P1;HPM_P2
2022/03/21 00:04:30;;;;;;;34.60;19.23;;;-0.30;70.90;;;;;;10452523;28;20276;-79
2022/03/21 00:09:32;;;;;;;41.37;21.37;;;-0.40;72.00;;;;;;10454091;28;20231;-78
2022/03/21 00:14:35;;;;;;;34.57;21.40;;;-0.60;73.70;;;;;;10453464;28;20207;-78
2022/03/21 00:19:37;;;;;;;37.50;21.57;;;-0.60;72.60;;;;;;10453224;28;20254;-78
2022/03/21 00:24:40;;;;;;;46.47;24.23;;;-0.70;73.80;;;;;;10452607;28;20198;-78
2022/03/21 00:29:43;;;;;;;40.70;22.77;;;-0.60;73.10;;;;;;10453518;28;20197;-79
2022/03/21 00:34:46;;;;;;;46.27;23.20;;;-0.60;72.80;;;;;;10452300;28;20577;-79
2022/03/21 00:39:51;;;;;;;46.83;23.47;;;-0.50;72.80;;;;;;10452002;28;20234;-78
2022/03/21 00:44:57;;;;;;;46.40;21.70;;;-0.60;72.40;;;;;;10451471;28;20644;-78
2022/03/21 00:49:59;;;;;;;36.57;20.83;;;-0.90;74.90;;;;;;10434092;28;20578;-78
2022/03/21 00:55:02;;;;;;;39.50;21.73;;;-1.10;75.60;;;;;;10452243;28;20291;-79
2022/03/21 01:00:08;;;;;;;35.67;19.90;;;-1.50;78.90;;;;;;10451210;28;20320;-78
2022/03/21 01:05:12;;;;;;;38.70;20.90;;;-1.30;77.40;;;;;;10451121;28;20221;-78
2022/03/21 01:10:17;;;;;;;43.47;23.33;;;-1.00;75.60;;;;;;10451273;28;20233;-78
2022/03/21 01:15:22;;;;;;;48.03;27.23;;;-1.10;76.00;;;;;;10433547;28;20222;-78
2022/03/21 01:20:26;;;;;;;45.53;25.33;;;-0.90;74.40;;;;;;10450450;28;20636;-78
2022/03/21 01:25:28;;;;;;;42.50;23.73;;;-1.60;77.90;;;;;;10449623;28;20214;-78
2022/03/21 01:30:31;;;;;;;40.23;22.70;;;;;;;;;;10450996;28;20224;-78
2022/03/21 01:35:33;;;;;;;35.00;20.50;;;-1.60;80.90;;;;;;10451495;28;20229;-78
2022/03/21 01:40:36;;;;;;;33.40;19.77;;;-1.50;80.30;;;;;;10448960;28;20777;-78
2022/03/21 01:45:39;;;;;;;33.93;18.53;;;-1.60;80.90;;;;;;10449308;28;20207;-78
2022/03/21 01:50:44;;;;;;;30.37;18.63;;;-1.50;79.80;;;;;;10450132;28;20290;-78
2022/03/21 01:55:48;;;;;;;36.13;19.00;;;-1.50;78.90;;;;;;10450238;28;20222;-78
2022/03/21 02:00:51;;;;;;;35.20;18.93;;;-1.30;78.30;;;;;;10449857;28;20253;-79
2022/03/21 02:05:54;;;;;;;29.73;17.67;;;-1.40;77.80;;;;;;10449396;28;20222;-78
2022/03/21 02:10:57;;;;;;;37.00;20.30;;;-1.10;76.40;;;;;;10447917;28;20699;-78
2022/03/21 02:15:59;;;;;;;38.20;19.90;;;-1.50;78.00;;;;;;10449582;28;20692;-78
2022/03/21 02:21:03;;;;;;;38.33;20.80;;;-1.50;77.80;;;;;;10448073;28;20298;-78
2022/03/21 02:26:08;;;;;;;35.03;19.70;;;-1.50;77.50;;;;;;10449361;28;20230;-78
2022/03/21 02:31:11;;;;;;;34.57;19.90;;;-1.30;76.90;;;;;;10448194;28;20320;-78
2022/03/21 02:36:16;;;;;;;39.47;19.17;;;-1.60;77.80;;;;;;10447477;28;20239;-78
2022/03/21 02:41:18;;;;;;;34.83;19.87;;;-1.90;80.60;;;;;;10455963;28;20306;-78
2022/03/21 02:46:21;;;;;;;39.20;20.80;;;-2.30;82.80;;;;;;10440732;28;20236;-78
2022/03/21 02:51:27;;;;;;;40.33;20.57;;;-2.10;82.60;;;;;;10456759;28;20238;-78
2022/03/21 02:56:30;;;;;;;35.00;19.47;;;-2.20;83.80;;;;;;10456671;28;20208;-78
2022/03/21 03:01:33;;;;;;;35.00;21.17;;;-2.20;83.40;;;;;;10455259;28;20250;-78
2022/03/21 03:06:35;;;;;;;42.73;22.00;;;-2.40;84.40;;;;;;10456879;28;20231;-78
2022/03/21 03:11:39;;;;;;;46.77;22.47;;;-2.70;88.40;;;;;;10456679;28;20203;-78
2022/03/21 03:16:41;;;;;;;34.47;19.40;;;-2.20;84.60;;;;;;10454798;28;20256;-78
2022/03/21 03:21:46;;;;;;;37.47;21.30;;;-2.10;83.90;;;;;;10454336;28;20285;-78
2022/03/21 03:26:49;;;;;;;33.13;19.90;;;-2.30;83.90;;;;;;10455359;28;20601;-78
2022/03/21 03:31:54;;;;;;;41.63;20.83;;;-2.60;86.30;;;;;;10455712;28;20221;-78
2022/03/21 03:36:56;;;;;;;37.90;20.33;;;-2.30;84.90;;;;;;10453025;28;20620;-78
2022/03/21 03:41:59;;;;;;;37.67;20.57;;;-2.50;86.80;;;;;;10456228;28;20265;-78
2022/03/21 03:47:02;;;;;;;35.50;19.93;;;-2.40;86.20;;;;;;10453410;28;20238;-78
2022/03/21 03:52:04;;;;;;;33.90;19.37;;;-2.60;88.10;;;;;;10453506;28;20274;-78
2022/03/21 03:57:09;;;;;;;35.03;20.23;;;-2.90;91.00;;;;;;10470657;28;20203;-78
2022/03/21 04:02:12;;;;;;;34.70;19.00;;;-2.60;89.30;;;;;;10453243;28;20232;-78
2022/03/21 04:07:14;;;;;;;35.40;19.23;;;-2.80;90.70;;;;;;10454348;28;20758;-78
2022/03/21 04:12:17;;;;;;;39.80;19.80;;;-2.60;89.90;;;;;;10453940;28;20600;-78
2022/03/21 04:17:19;;;;;;;37.00;20.00;;;-3.00;91.50;;;;;;10453140;28;20623;-78
2022/03/21 04:22:22;;;;;;;35.23;20.63;;;-3.00;91.80;;;;;;10453627;28;20228;-78
2022/03/21 04:27:24;;;;;;;36.90;20.40;;;-3.10;93.40;;;;;;10453663;28;20201;-79
2022/03/21 04:32:27;;;;;;;36.33;20.73;;;-3.00;92.90;;;;;;10411868;28;20246;-78
2022/03/21 04:37:29;;;;;;;35.73;19.97;;;-3.00;92.90;;;;;;10446549;28;20254;-78
2022/03/21 04:42:32;;;;;;;36.90;21.17;;;-3.30;93.60;;;;;;10453352;28;20228;-78
2022/03/21 04:47:35;;;;;;;39.70;21.67;;;-3.40;95.70;;;;;;10452059;28;20204;-78
2022/03/21 04:52:37;;;;;;;116.97;52.07;;;-3.30;95.20;;;;;;10409598;28;20244;-78
2022/03/21 04:57:39;;;;;;;63.93;34.03;;;-3.10;94.20;;;;;;10425552;28;20247;-78
2022/03/21 05:02:42;;;;;;;37.53;20.87;;;-3.30;95.40;;;;;;10450771;28;20231;-78
2022/03/21 05:07:46;;;;;;;38.87;21.43;;;-3.10;94.40;;;;;;10434097;28;20242;-77
2022/03/21 05:12:49;;;;;;;35.87;19.10;;;-2.60;91.60;;;;;;10451467;28;20278;-78
2022/03/21 05:17:52;;;;;;;34.87;20.83;;;;;;;;;;10448300;28;20790;-78
2022/03/21 05:38:59;;;;;;;34.07;20.20;;;1.70;78.70;;;;;;10450280;28;20754;-78
2022/03/21 05:44:01;;;;;;;45.30;21.33;;;4.60;73.60;;;;;;10451080;28;20776;-78
2022/03/21 05:49:04;;;;;;;38.67;21.93;;;2.10;66.00;;;;;;10448294;28;20227;-78
2022/03/21 05:54:10;;;;;;;43.87;21.80;;;3.30;63.10;;;;;;10448932;28;20226;-78
2022/03/21 06:04:34;;;;;;;45.37;23.07;;;-0.20;78.30;;;;;;10448627;28;20234;-78
2022/03/21 06:09:37;;;;;;;36.17;22.07;;;-0.10;78.00;;;;;;10450086;28;20234;-78
2022/03/21 06:14:39;;;;;;;40.00;22.97;;;0.20;76.50;;;;;;10448487;28;20209;-78
2022/03/21 06:19:42;;;;;;;54.57;25.17;;;0.30;77.40;;;;;;10449699;28;20324;-79
2022/03/21 06:24:44;;;;;;;51.13;27.70;;;0.80;76.50;;;;;;10447978;28;20210;-79
2022/03/21 06:29:47;;;;;;;46.17;24.67;;;0.90;75.80;;;;;;10449409;28;20234;-78
2022/03/21 06:34:49;;;;;;;47.73;22.00;;;1.20;73.30;;;;;;10446655;28;20281;-78
2022/03/21 06:39:52;;;;;;;38.90;22.40;;;1.90;70.30;;;;;;10430408;28;20250;-78
2022/03/21 06:44:54;;;;;;;43.20;21.60;;;2.00;71.00;;;;;;10448488;28;20219;-78
2022/03/21 06:49:57;;;;;;;42.80;22.10;;;3.60;68.90;;;;;;10446957;28;20227;-82
2022/03/21 06:54:59;;;;;;;35.97;21.30;;;4.40;64.80;;;;;;10447488;28;20223;-79
2022/03/21 07:00:05;;;;;;;40.50;21.90;;;5.80;61.50;;;;;;10447843;28;20273;-79
2022/03/21 07:05:08;;;;;;;44.03;21.83;;;4.20;61.30;;;;;;10430411;28;20620;-78
2022/03/21 07:10:11;;;;;;;42.57;21.57;;;4.00;62.10;;;;;;10443970;28;20239;-78
2022/03/21 07:15:15;;;;;;;58.63;23.23;;;6.20;56.60;;;;;;10447648;28;20255;-78
2022/03/21 07:20:20;;;;;;;38.60;18.90;;;5.00;58.70;;;;;;10448419;28;20303;-78
2022/03/21 07:25:23;;;;;;;38.80;22.93;;;5.30;59.50;;;;;;10452609;28;20261;-78
2022/03/21 07:30:26;;;;;;;37.00;21.20;;;6.40;56.30;;;;;;10438342;28;20207;-78
2022/03/21 07:35:28;;;;;;;40.10;21.17;;;6.30;56.60;;;;;;10456294;28;20253;-78
2022/03/21 07:40:31;;;;;;;35.70;21.37;;;7.40;56.10;;;;;;10454664;28;20314;-78
2022/03/21 07:50:55;;;;;;;41.33;20.60;;;6.70;54.20;;;;;;10447802;28;20238;-77
2022/03/21 07:55:59;;;;;;;42.23;19.43;;;9.60;51.10;;;;;;10452529;28;20594;-78
2022/03/21 08:01:06;;;;;;;38.03;22.60;;;8.60;51.40;;;;;;10428059;28;20254;-78
2022/03/21 08:06:10;;;;;;;31.47;20.80;;;9.50;48.70;;;;;;10441075;28;20222;-78
2022/03/21 08:11:13;;;;;;;34.87;20.20;;;9.10;51.40;;;;;;10452513;28;20246;-78
2022/03/21 08:16:19;;;;;;;36.30;20.27;;;7.60;51.60;;;;;;10452553;28;20324;-78
2022/03/21 08:21:22;;;;;;;39.27;24.90;;;8.90;53.70;;;;;;10452927;28;20706;-78
2022/03/21 08:26:24;;;;;;;33.40;20.40;;;8.40;49.50;;;;;;10451366;28;20222;-78
2022/03/21 08:31:28;;;;;;;35.57;21.23;;;8.60;57.10;;;;;;10451083;28;20664;-78
2022/03/21 08:36:31;;;;;;;35.07;20.57;;;9.30;51.00;;;;;;10451965;28;20595;-78
2022/03/21 08:41:34;;;;;;;24.57;17.60;;;11.60;46.40;;;;;;10439690;28;20247;-77
2022/03/21 08:46:36;;;;;;;31.63;18.87;;;11.30;50.80;;;;;;10452363;28;20230;-77
2022/03/21 08:51:39;;;;;;;47.00;23.50;;;13.10;50.50;;;;;;10451620;28;20244;-77
2022/03/21 08:56:42;;;;;;;28.40;19.43;;;12.20;43.10;;;;;;10449942;28;20233;-77
2022/03/21 09:01:44;;;;;;;29.93;19.07;;;12.80;47.60;;;;;;10450842;28;20264;-78
2022/03/21 09:06:47;;;;;;;37.83;21.30;;;12.40;47.90;;;;;;10449920;28;20230;-80
2022/03/21 09:11:51;;;;;;;33.10;19.40;;;11.60;44.70;;;;;;10447855;28;20230;-80
2022/03/21 09:16:56;;;;;;;40.87;20.63;;;12.70;46.20;;;;;;10448060;28;20304;-80
2022/03/21 09:21:59;;;;;;;29.20;18.30;;;11.60;42.50;;;;;;10447697;28;20314;-80
2022/03/21 09:27:02;;;;;;;31.10;19.03;;;12.10;47.20;;;;;;10447660;28;20224;-79
2022/03/21 09:32:05;;;;;;;38.03;20.83;;;12.70;51.40;;;;;;10448468;28;20234;-78
2022/03/21 09:37:08;;;;;;;34.33;17.57;;;12.30;42.10;;;;;;10098418;28;10000621;-78
2022/03/21 09:42:11;;;;;;;26.93;17.20;;;12.80;41.50;;;;;;10447691;28;20288;-77
2022/03/21 09:52:35;;;;;;;23.90;17.37;;;11.90;43.00;;;;;;10449087;28;21162;-77
2022/03/21 09:57:37;;;;;;;30.10;16.90;;;11.30;49.20;;;;;;10447746;28;20268;-77
2022/03/21 10:02:40;;;;;;;34.93;18.17;;;12.70;43.70;;;;;;10446805;28;20303;-77
2022/03/21 10:07:44;;;;;;;25.77;14.97;;;12.30;44.00;;;;;;10446794;28;20285;-78
2022/03/21 10:12:47;;;;;;;28.60;18.57;;;12.80;40.00;;;;;;10444367;28;20229;-78
2022/03/21 10:18:13;;;;;;;26.03;17.87;;;12.90;50.70;;;;;;10448573;28;20937;-78
2022/03/21 10:23:21;;;;;;;26.83;15.50;;;14.00;42.70;;;;;;10430189;28;20307;-78
2022/03/21 10:28:39;;;;;;;26.77;15.50;;;13.50;38.90;;;;;;10448276;28;20265;-78
2022/03/21 10:33:42;;;;;;;26.30;18.10;;;12.10;41.00;;;;;;10448570;28;20992;-78
2022/03/21 10:38:44;;;;;;;25.23;16.37;;;13.00;50.60;;;;;;10448636;28;20805;-78
2022/03/21 10:44:06;;;;;;;20.40;14.63;;;14.20;47.30;;;;;;10449054;28;20234;-78
2022/03/21 10:49:10;;;;;;;27.40;15.83;;;12.60;40.40;;;;;;10408214;28;20231;-78
2022/03/21 10:54:49;;;;;;;24.17;15.57;;;14.10;46.10;;;;;;10422535;28;20235;-78
2022/03/21 11:00:21;;;;;;;27.63;15.53;;;12.80;43.20;;;;;;10427543;28;20792;-78
2022/03/21 11:05:26;;;;;;;26.67;17.93;;;13.70;38.90;;;;;;10456681;28;20234;-79
2022/03/21 11:10:29;;;;;;;29.30;17.80;;;13.20;49.60;;;;;;10457114;28;20676;-78
2022/03/21 11:15:35;;;;;;;29.87;17.13;;;13.50;49.80;;;;;;10455248;28;20292;-78
2022/03/21 11:20:37;;;;;;;24.40;14.63;;;14.10;49.60;;;;;;10454832;28;20715;-78
2022/03/21 11:25:48;;;;;;;24.33;16.50;;;13.60;39.60;;;;;;10455125;28;20235;-78
2022/03/21 11:31:26;;;;;;;19.93;14.27;;;14.40;48.00;;;;;;10455078;28;20666;-78
2022/03/21 11:36:31;;;;;;;40.53;13.73;;;14.80;48.20;;;;;;10441660;28;20237;-78
2022/03/21 11:41:33;;;;;;;19.97;15.10;;;13.90;35.80;;;;;;10454763;28;20246;-79
2022/03/21 11:46:37;;;;;;;23.03;13.27;;;13.00;47.50;;;;;;10453285;28;20614;-79
2022/03/21 11:51:40;;;;;;;21.57;13.10;;;14.00;36.80;;;;;;10453338;28;20238;-79
2022/03/21 11:56:43;;;;;;;23.80;14.30;;;13.00;39.30;;;;;;10454349;28;20234;-79
2022/03/21 12:01:46;;;;;;;21.40;14.23;;;13.30;38.60;;;;;;10454118;28;20715;-79
2022/03/21 12:06:49;;;;;;;22.40;14.17;;;13.20;42.50;;;;;;10429216;28;20231;-79
2022/03/21 12:11:52;;;;;;;26.03;14.10;;;13.00;38.90;;;;;;10412654;28;20345;-79
2022/03/21 12:17:00;;;;;;;45.90;15.13;;;12.70;43.30;;;;;;10418378;28;20258;-79
2022/03/21 12:22:33;;;;;;;19.50;13.53;;;13.80;43.50;;;;;;10450573;28;20254;-79
2022/03/21 12:27:51;;;;;;;26.07;15.40;;;14.20;36.60;;;;;;10405079;28;20282;-79
2022/03/21 12:33:07;;;;;;;22.73;13.50;;;14.30;42.40;;;;;;10406458;28;20652;-79
2022/03/21 12:38:21;;;;;;;24.20;13.47;;;13.70;36.60;;;;;;10390842;28;20243;-79
2022/03/21 12:43:24;;;;;;;22.07;14.27;;;14.00;38.90;;;;;;10407406;28;20309;-79
2022/03/21 12:48:30;;;;;;;18.23;13.87;;;13.60;45.90;;;;;;10390272;28;20699;-79
2022/03/21 12:53:39;;;;;;;22.53;15.57;;;14.20;46.20;;;;;;10398513;28;20235;-79
2022/03/21 12:58:45;;;;;;;25.27;13.67;;;14.00;43.90;;;;;;10399935;28;20231;-79
2022/03/21 13:03:57;;;;;;;21.13;13.30;;;15.20;41.10;;;;;;10442203;28;20304;-79
2022/03/21 13:14:14;;;;;;;19.50;12.97;;;16.50;41.10;;;;;;10450695;28;20205;-79
2022/03/21 13:19:20;;;;;;;22.40;13.23;;;15.40;37.10;;;;;;10451591;28;20320;-79
2022/03/21 13:24:36;;;;;;;20.27;12.57;;;14.00;36.50;;;;;;10449070;28;20226;-79
2022/03/21 13:29:43;;;;;;;21.57;13.80;;;14.60;44.90;;;;;;10451226;28;20237;-79
2022/03/21 13:34:55;;;;;;;18.63;12.27;;;15.60;40.90;;;;;;10449152;28;20230;-80
2022/03/21 13:40:03;;;;;;;17.00;11.47;;;14.90;37.70;;;;;;10432503;28;20773;-79
2022/03/21 13:45:06;;;;;;;15.63;11.33;;;14.10;40.20;;;;;;10450413;28;20226;-79
2022/03/21 13:50:10;;;;;;;20.97;12.63;;;14.40;38.80;;;;;;10449831;28;20230;-79
2022/03/21 13:55:19;;;;;;;16.47;11.90;;;14.40;37.80;;;;;;10448863;28;20304;-79
2022/03/21 14:00:43;;;;;;;19.47;12.00;;;15.40;38.10;;;;;;10450831;28;20254;-79
2022/03/21 14:05:56;;;;;;;21.23;12.77;;;14.90;41.70;;;;;;10449522;28;20226;-79
2022/03/21 14:11:08;;;;;;;22.40;11.00;;;14.30;39.70;;;;;;10449033;28;20235;-79
2022/03/21 14:16:11;;;;;;;17.70;12.53;;;;;;;;;;10450183;28;20226;-79
2022/03/21 14:21:14;;;;;;;17.73;12.30;;;14.50;37.70;;;;;;10450220;28;20383;-79
2022/03/21 14:26:30;;;;;;;20.23;12.90;;;14.80;44.50;;;;;;10449230;28;20256;-79
2022/03/21 14:31:34;;;;;;;19.37;11.63;;;14.40;43.90;;;;;;10449193;28;20757;-79
2022/03/21 14:36:37;;;;;;;18.60;12.87;;;14.90;39.30;;;;;;10457687;28;20288;-79
2022/03/21 14:41:39;;;;;;;19.97;12.47;;;14.40;45.80;;;;;;10457257;28;20254;-79
2022/03/21 14:46:42;;;;;;;19.53;12.23;;;15.20;44.10;;;;;;10457426;28;20198;-79
2022/03/21 14:51:44;;;;;;;18.10;11.43;;;15.10;40.40;;;;;;10457907;28;20230;-79
2022/03/21 14:56:47;;;;;;;19.03;12.13;;;14.40;36.80;;;;;;10457728;28;20234;-79
2022/03/21 15:01:49;;;;;;;127.70;19.63;;;15.00;44.70;;;;;;10457323;28;20250;-79
2022/03/21 15:06:53;;;;;;;20.70;13.07;;;15.10;37.30;;;;;;10457362;28;20234;-79
2022/03/21 15:11:56;;;;;;;21.13;13.23;;;14.90;45.60;;;;;;10455790;28;20239;-79
2022/03/21 15:17:00;;;;;;;24.10;11.37;;;15.30;45.50;;;;;;10454610;28;20697;-80
2022/03/21 15:22:21;;;;;;;16.37;9.93;;;15.50;37.00;;;;;;10455445;28;20246;-79
2022/03/21 15:27:24;;;;;;;21.00;11.77;;;14.60;43.90;;;;;;10454698;22;20673;-84
2022/03/21 15:32:27;;;;;;;29.80;12.77;;;15.40;38.10;;;;;;10373343;28;20243;-84
2022/03/21 15:42:51;;;;;;;23.60;17.43;;;14.30;48.60;;;;;;10370960;28;20321;-83
2022/03/21 15:47:54;;;;;;;15.70;9.60;;;15.40;40.80;;;;;;10370640;28;20196;-84
2022/03/21 15:52:59;;;;;;;11.33;8.97;;;15.50;45.70;;;;;;10370956;28;20204;-84
2022/03/21 15:58:03;;;;;;;44.77;13.03;;;15.30;45.80;;;;;;10372937;28;20673;-84
2022/03/21 16:03:05;;;;;;;17.90;10.70;;;15.00;42.00;;;;;;10360062;28;20282;-92
2022/03/21 16:08:08;;;;;;;20.93;10.67;;;15.10;37.10;;;;;;10356537;28;20239;-90
2022/03/21 16:13:11;;;;;;;22.57;11.83;;;13.10;38.40;;;;;;10373042;28;20208;-92
2022/03/21 16:18:15;;;;;;;21.53;11.40;;;12.10;40.00;;;;;;10372614;28;20258;-91
2022/03/21 16:23:18;;;;;;;21.33;12.60;;;12.00;43.00;;;;;;10371734;28;20266;-91
2022/03/21 16:28:21;;;;;;;16.20;11.40;;;11.40;41.70;;;;;;10355613;28;20321;-92
2022/03/21 16:33:26;;;;;;;20.57;12.27;;;11.10;42.90;;;;;;10356543;28;20203;-92
2022/03/21 16:38:29;;;;;;;36.17;16.60;;;;;;;;;;10355989;28;20215;-92
2022/03/21 16:43:31;;;;;;;46.60;21.20;;;10.40;44.40;;;;;;10356181;28;20233;-91
2022/03/21 16:48:34;;;;;;;35.67;16.93;;;9.90;47.60;;;;;;10355395;28;20203;-92
2022/03/21 16:53:37;;;;;;;45.53;16.90;;;9.90;46.10;;;;;;10354712;28;20257;-92
2022/03/21 16:58:41;;;;;;;29.20;14.30;;;9.50;48.60;;;;;;10370509;28;20260;-92
2022/03/21 17:03:48;;;;;;;29.93;13.83;;;8.80;49.80;;;;;;10372602;28;20220;-92
2022/03/21 17:08:53;;;;;;;28.83;16.50;;;8.40;52.20;;;;;;10371453;28;20244;-92
2022/03/21 17:13:59;;;;;;;47.30;22.27;;;7.90;52.50;;;;;;10354503;28;20691;-91
2022/03/21 17:24:47;;;;;;;55.53;24.33;;;7.50;62.00;;;;;;10515858;23;20315;-92
2022/03/21 17:29:49;;;;;;;59.13;23.57;;;7.70;52.90;;;;;;10273175;28;20205;-91
2022/03/21 17:34:53;;;;;;;50.00;21.20;;;7.00;54.90;;;;;;10288819;28;20257;-90
2022/03/21 17:39:56;;;;;;;56.00;20.90;;;6.60;55.40;;;;;;10289344;28;20675;-90
2022/03/21 17:44:59;;;;;;;61.17;19.50;;;6.50;55.20;;;;;;10287392;28;20882;-90
2022/03/21 17:50:02;;;;;;;58.67;21.27;;;6.40;55.10;;;;;;10287560;28;20205;-89
2022/03/21 17:55:06;;;;;;;69.17;27.37;;;5.80;59.10;;;;;;10288098;28;20238;-89
2022/03/21 18:00:10;;;;;;;71.50;32.90;;;5.30;60.70;;;;;;10288090;28;20630;-89
2022/03/21 18:05:16;;;;;;;78.07;33.67;;;5.00;62.10;;;;;;10287633;28;20563;-89
2022/03/21 18:10:18;;;;;;;80.97;34.00;;;4.50;64.30;;;;;;10262424;28;20565;-81
2022/03/21 18:15:21;;;;;;;95.53;39.87;;;6.10;63.50;;;;;;10263011;28;20275;-81
2022/03/21 18:20:37;;;;;;;87.43;38.03;;;4.40;65.30;;;;;;10245979;28;20683;-81
2022/03/21 18:25:40;;;;;;;74.43;32.80;;;3.90;67.30;;;;;;10248708;28;20288;-80
2022/03/21 18:30:45;;;;;;;125.60;48.27;;;3.60;68.90;;;;;;10254776;28;20297;-81
2022/03/21 18:35:48;;;;;;;109.97;45.13;;;3.10;71.40;;;;;;10240851;28;20242;-80
2022/03/21 18:40:50;;;;;;;117.90;49.80;;;2.70;72.50;;;;;;10271568;28;20714;-81
2022/03/21 18:45:56;;;;;;;84.80;36.00;;;2.90;70.20;;;;;;10263030;28;20238;-80
2022/03/21 18:50:59;;;;;;;89.03;37.73;;;3.60;66.40;;;;;;10276903;28;20233;-81
2022/03/21 18:56:01;;;;;;;94.53;37.90;;;3.00;69.70;;;;;;10273303;28;20293;-80
2022/03/21 19:01:04;;;;;;;70.10;30.93;;;2.40;73.50;;;;;;10244386;28;20327;-80
2022/03/21 19:06:09;;;;;;;75.33;29.97;;;1.90;75.90;;;;;;10264016;28;20234;-80
2022/03/21 19:11:11;;;;;;;80.03;30.63;;;1.80;78.00;;;;;;10251576;28;20264;-80
2022/03/21 19:16:14;;;;;;;71.77;28.30;;;1.50;80.90;;;;;;10244427;28;20238;-80
2022/03/21 19:21:16;;;;;;;72.73;27.50;;;1.60;81.40;;;;;;10255409;28;20689;-80
2022/03/21 19:26:19;;;;;;;81.10;31.40;;;1.40;82.60;;;;;;10271160;28;20242;-82
2022/03/21 19:31:22;;;;;;;71.80;30.30;;;1.70;81.10;;;;;;10283709;28;20307;-80
2022/03/21 19:36:25;;;;;;;59.30;25.97;;;1.60;79.90;;;;;;10254420;28;20230;-80
2022/03/21 19:41:40;;;;;;;57.03;25.23;;;1.30;80.80;;;;;;10280671;28;20253;-80
2022/03/21 19:46:42;;;;;;;78.83;27.87;;;0.90;86.20;;;;;;10284139;28;20230;-80
2022/03/21 19:51:45;;;;;;;90.40;33.97;;;1.00;86.20;;;;;;10252364;29;20202;-80
2022/03/21 19:56:48;;;;;;;92.67;36.33;;;0.90;87.00;;;;;;10283578;28;20249;-81
2022/03/21 20:01:51;;;;;;;78.40;30.90;;;0.90;86.30;;;;;;10285409;28;20256;-81
2022/03/21 20:06:53;;;;;;;57.70;28.07;;;0.80;88.70;;;;;;10273870;28;20285;-80
2022/03/21 20:11:56;;;;;;;57.53;27.63;;;0.50;90.00;;;;;;10271844;28;20234;-80
2022/03/21 20:17:01;;;;;;;75.83;31.63;;;0.50;90.20;;;;;;10252426;28;20289;-80
2022/03/21 20:22:04;;;;;;;66.87;30.47;;;0.50;90.90;;;;;;10261093;28;20329;-80
2022/03/21 20:27:06;;;;;;;63.67;29.17;;;0.50;90.80;;;;;;10254407;28;20238;-80
2022/03/21 20:32:11;;;;;;;61.13;29.07;;;0.40;90.70;;;;;;10254218;28;20230;-80
2022/03/21 20:37:14;;;;;;;64.00;28.63;;;0.10;90.60;;;;;;10250280;28;20273;-80
2022/03/21 20:42:16;;;;;;;49.33;26.00;;;0.10;91.20;;;;;;10249877;28;20253;-80
2022/03/21 20:47:19;;;;;;;58.50;26.27;;;-0.20;92.60;;;;;;10264151;28;20678;-80
2022/03/21 20:52:22;;;;;;;49.37;25.27;;;0.00;91.60;;;;;;10288998;28;20282;-80
2022/03/21 20:57:27;;;;;;;47.00;23.10;;;-0.20;93.30;;;;;;10275854;28;20237;-80
2022/03/21 21:02:31;;;;;;;45.93;24.53;;;0.00;91.70;;;;;;10257068;28;20250;-79
2022/03/21 21:07:34;;;;;;;49.30;26.23;;;0.10;91.60;;;;;;10249024;28;20238;-79
2022/03/21 21:12:37;;;;;;;47.07;25.60;;;0.10;90.70;;;;;;10249315;28;20667;-80
2022/03/21 21:17:39;;;;;;;45.90;24.30;;;-0.10;90.40;;;;;;10247275;28;20206;-80
2022/03/21 21:22:43;;;;;;;54.97;27.37;;;-0.40;94.90;;;;;;10260196;28;20771;-80
2022/03/21 21:27:46;;;;;;;51.27;26.13;;;-0.50;95.30;;;;;;10283425;28;20283;-80
2022/03/21 21:32:49;;;;;;;53.93;28.83;;;-0.50;95.70;;;;;;10258982;28;20674;-80
2022/03/21 21:37:52;;;;;;;54.37;28.10;;;-0.40;95.10;;;;;;10265434;28;20245;-80
2022/03/21 21:42:58;;;;;;;60.33;29.67;;;-0.40;94.30;;;;;;10267352;28;20256;-80
2022/03/21 21:48:00;;;;;;;59.37;30.50;;;0.00;92.10;;;;;;10281817;28;20229;-80
2022/03/21 21:53:03;;;;;;;62.10;31.67;;;0.20;90.10;;;;;;10270743;28;20248;-80
2022/03/21 21:58:06;;;;;;;67.07;29.53;;;-0.10;91.30;;;;;;10255887;28;20301;-80
2022/03/21 22:03:10;;;;;;;53.00;28.17;;;-0.30;91.50;;;;;;10261909;28;20315;-80
2022/03/21 22:08:15;;;;;;;54.90;27.63;;;-0.70;94.20;;;;;;10270560;28;20634;-80
2022/03/21 22:13:19;;;;;;;61.07;30.13;;;-0.60;94.00;;;;;;10270340;28;20264;-80
2022/03/21 22:18:21;;;;;;;57.00;29.60;;;-0.70;95.00;;;;;;10319988;28;20241;-80
2022/03/21 22:23:24;;;;;;;59.53;27.53;;;-0.80;96.60;;;;;;10254746;28;20257;-80
2022/03/21 22:28:27;;;;;;;59.87;28.87;;;-1.10;97.60;;;;;;10258631;28;20265;-80
2022/03/21 22:33:29;;;;;;;59.00;31.03;;;-1.30;99.30;;;;;;10281843;28;20240;-80
2022/03/21 22:38:32;;;;;;;72.60;29.40;;;-1.10;99.20;;;;;;10267132;28;20291;-79
2022/03/21 22:48:55;;;;;;;81.10;36.73;;;-1.30;99.90;;;;;;10261370;28;20288;-80
2022/03/21 22:53:58;;;;;;;71.07;36.43;;;-1.00;98.50;;;;;;10271757;28;20272;-79
2022/03/21 22:59:00;;;;;;;68.77;33.03;;;-0.60;95.90;;;;;;10267575;28;20303;-80
2022/03/21 23:04:06;;;;;;;68.30;33.03;;;-0.70;96.80;;;;;;10288760;28;20263;-80
2022/03/21 23:09:09;;;;;;;79.83;35.73;;;-1.10;97.80;;;;;;10289762;28;20662;-80
2022/03/21 23:14:12;;;;;;;72.53;33.47;;;-1.00;98.10;;;;;;10270969;28;20236;-80
2022/03/21 23:19:14;;;;;;;68.10;32.87;;;-0.90;98.10;;;;;;10257299;28;20288;-80
2022/03/21 23:24:18;;;;;;;71.47;35.43;;;-0.50;96.70;;;;;;10282748;28;20306;-80
2022/03/21 23:29:22;;;;;;;81.10;37.00;;;-0.40;96.50;;;;;;10292006;28;20244;-80
2022/03/21 23:34:25;;;;;;;72.63;35.07;;;-0.20;94.80;;;;;;10262869;28;20278;-80
2022/03/21 23:42:19;;;;;;;76.10;35.63;;;-0.30;95.40;;;;;;10253188;28;20272;-80
2022/03/21 23:44:50;;;;;;;74.10;34.97;;;-0.40;96.40;;;;;;10251930;29;20806;-80
2022/03/21 23:49:53;;;;;;;75.73;34.43;;;-0.30;94.40;;;;;;10270828;28;20194;-80
2022/03/21 23:54:55;;;;;;;68.33;33.77;;;0.00;93.50;;;;;;10273375;28;20242;-80
2022/03/21 23:59:57;;;;;;;65.40;34.40;;;0.20;91.80;;;;;;10252271;29;20314;-80
